Houlton, ME

6:27 PM EDT on May 30, 2015 (GMT -0400)
Northern Maine Regional At Presque Isle | Change Station
CLOSE
Current Station
Airport
Location: Presque Isle,
Elevation: 479 ft
Nearby Weather Stations

Elev 479 ft 46.69 °N, 68.04 °W | Updated 12 minutes ago

Clear
Clear
82 °F
Feels Like 83 °F
N
13
Wind Variable Wind from SSW

Today
High -- | Low -- °F
--% Chance of Precip.
Yesterday
High -- | Low -- °F
Precip. -- in
4:45 AM 8:13 PM
Waxing Gibbous, 92% visible
Pressure 29.79 in
Visibility 10.0 miles
Clouds Few 6500 ft
Mostly Cloudy 11000 ft
Heat Index 83 °F
Dew Point 61 °F
Humidity 48%
Rainfall 0.00 in
Snow Depth Not available.
UV 1 out of 12
Pollen 9.20 out of 12
Air Quality Not available.
Flu Activity Regional
METAR KPQI 302215Z AUTO 20011KT 10SM FEW065 BKN110 28/16 A2979 RMK AO1

More Conditions Fewer Conditions

Pressure 29.79 in
Visibility 10.0 miles
Clouds Few 6500 ft
Mostly Cloudy 11000 ft
Heat Index 83 °F
Dew Point 61 °F
Humidity 48%
Rainfall 0.00 in
Snow Depth Not available.
UV 1 out of 12
Pollen 9.20 out of 12
Air Quality Not available.
Flu Activity Regional
METAR KPQI 302215Z AUTO 20011KT 10SM FEW065 BKN110 28/16 A2979 RMK AO1

More Conditions Fewer Conditions

10-Day Weather Forecast

Almanac

Astronomy

May. 30, 2015 Rise Set
Actual Time 4:45 AM EDT 8:13 PM EDT
Civil Twilight 4:07 AM EDT 8:50 PM EDT
Nautical Twilight 3:18 AM EDT 9:39 PM EDT
Astronomical Twilight 2:15 AM EDT 10:44 PM EDT
Moon 5:05 PM EDT 3:10 AM EDT
Length of Visible Light 16h 42m
Length of Day
15h 28m
Tomorrow will be 1m 34s longer.
Waxing Gibbous, 92% of the Moon is Illuminated
Today
Waxing Gibbous
Jun 2
Full
Jun 9
Last Quarter
Jun 16
New
Jun 24
First Quarter

Today's Extremes

State Highs State Lows

Community

WunderPhotos

Upload Photos

1,825,613 photos uploaded!

Nearby

Snow Depth

Station Depth Elevation
No new snow has been reported.

Earthquake Activity

City Distance Mag. Time & Date
No recent earthquake activity has been reported nearby.
Minimum magnitude displayed is 2.5.

Coastal Water Temperatures

Place Temperature
No Stations Reporting

Nearby Weather Stations